Ops Hamburg — A8VS9 — position and weather

sailwx.info

Track history (hours):
 
Tides and Currents Weather Stations Pressure Air Temp Water Temp Dewpoint Dewpoint Depression Visibility Wind Speed Wind Dir Waves Ship Positions

Ops Hamburg

Last reported at 2017-Feb-20 20:32 UTC. Time now 2017-Feb-22 15:17 UTC.
Position N 35°54' W 005°56'.

Length 148 m; draft 8 m.

Type: Ship (hazmat cat A). MMSI: 636092040.

Date/timePositionNaut miles runAvg speedWind from/ knotsBaromVisibWave heightAir tempDewpointWater temp
2017-Feb-20 20:32N 35°54' W 005°56'1516.0
2017-Feb-20 19:33N 35°57' W 005°38'1615.6
2017-Feb-20 18:34N 36°02' W 005°19'1615.6
2017-Feb-20 17:32N 36°06' W 004°60'21013.1
2017-Feb-20 01:28N 37°20' W 000°55'1213.4
2017-Feb-20 00:32N 37°28' W 000°43'1312.9
2017-Feb-19 23:33N 37°37' W 000°31'10710.4
2017-Feb-19 13:15N 39°22' W 000°11'710.2
2017-Feb-19 12:34N 39°26' W 000°19'1 0.7
2017-Feb-19 11:31N 39°27' W 000°19'0 0.0
2017-Feb-19 10:33N 39°27' W 000°19'0 0.0
2017-Feb-19 09:33N 39°27' W 000°19'0 0.0
2017-Feb-19 08:33N 39°27' W 000°19'0 0.0
2017-Feb-19 07:33N 39°27' W 000°19'0 0.0
2017-Feb-19 06:33N 39°27' W 000°19'0 0.0
2017-Feb-19 05:33N 39°27' W 000°19'0 0.0
2017-Feb-19 04:33N 39°27' W 000°19'0 0.0
2017-Feb-19 03:33N 39°27' W 000°19'0 0.0
2017-Feb-19 02:33N 39°27' W 000°19'0 0.0
2017-Feb-19 01:33N 39°27' W 000°19'0 0.0
2017-Feb-19 00:33N 39°27' W 000°19'0 0.0
2017-Feb-18 23:33N 39°27' W 000°19'0 0.0
2017-Feb-18 22:33N 39°27' W 000°19'0 0.0
2017-Feb-18 21:33N 39°27' W 000°19'0 0.0
2017-Feb-18 20:33N 39°27' W 000°19'0 0.0
2017-Feb-18 19:33N 39°27' W 000°19'0 0.0
2017-Feb-18 18:33N 39°27' W 000°19'0 0.0
2017-Feb-18 17:33N 39°27' W 000°19'0 0.0
2017-Feb-18 16:33N 39°27' W 000°19'0 0.0
2017-Feb-18 15:33N 39°27' W 000°19'0 0.0
2017-Feb-18 14:33N 39°27' W 000°19'0 0.0
2017-Feb-18 13:33N 39°27' W 000°19'0 0.0
2017-Feb-18 12:33N 39°27' W 000°19'0 0.0
2017-Feb-18 11:33N 39°27' W 000°19'0 0.0
2017-Feb-18 10:33N 39°27' W 000°19'0 0.0
2017-Feb-18 09:33N 39°27' W 000°19'0 0.0
2017-Feb-18 08:34N 39°27' W 000°19'4 3.8
2017-Feb-18 07:32N 39°26' W 000°14'68 3.4
2017-Feb-17 11:33N 40°12' E 000°51'1313.1
2017-Feb-17 10:33N 40°21' E 001°04'1312.7
2017-Feb-17 09:33N 40°29' E 001°17'1514.5
2017-Feb-17 08:33N 40°39' E 001°30'1616.0
2017-Feb-17 07:33N 40°50' E 001°46'1212.3
2017-Feb-17 06:33N 40°58' E 001°58'1212.1
2017-Feb-17 05:33N 41°05' E 002°11'1212.0
2017-Feb-17 04:33N 41°12' E 002°24'1212.2
2017-Feb-17 03:33N 41°19' E 002°38'15512.8
2017-Feb-16 15:31N 43°08' E 005°05'1313.8
2017-Feb-16 14:33N 43°19' E 005°15'3 0.3
2017-Feb-16 04:32N 43°21' E 005°19'8 8.0
2017-Feb-16 03:34N 43°16' E 005°11'  
2017-Feb-13 01:08N 41°29' E 003°09'813.2
2017-Feb-13 00:33N 41°23' E 003°02'1313.3
2017-Feb-12 23:33N 41°12' E 002°52'1413.7
2017-Feb-12 22:33N 41°01' E 002°41'1514.7
2017-Feb-12 21:33N 40°49' E 002°29'1514.9
2017-Feb-12 20:33N 40°37' E 002°17'1514.8
2017-Feb-12 19:33N 40°25' E 002°06'1515.3
2017-Feb-12 18:33N 40°13' E 001°54'1615.5
2017-Feb-12 17:33N 40°00' E 001°42'1515.3
2017-Feb-12 16:33N 39°48' E 001°30'1915.4
2017-Feb-12 15:19N 39°33' E 001°15'1215.7
2017-Feb-12 14:33N 39°23' E 001°06'12315.3
2017-Feb-12 06:33N 37°42' W 000°23'1515.3
2017-Feb-12 05:33N 37°30' W 000°35'1614.9
2017-Feb-12 04:28N 37°20' W 000°51'21114.2
2017-Feb-11 13:32N 36°03' W 004°57'1616.1
2017-Feb-11 12:33N 36°01' W 005°16'1615.8
2017-Feb-11 11:33N 35°56' W 005°35'1413.2
2017-Feb-11 10:29N 35°54' W 005°52'  
Track history (hours):
 
Tides and Currents Weather Stations Pressure Air Temp Water Temp Dewpoint Dewpoint Depression Visibility Wind Speed Wind Dir Waves Ship Positions

Ops Hamburg

Last reported at 2017-Feb-20 20:32 UTC. Time now 2017-Feb-22 15:17 UTC.
Position N 35°54' W 005°56'.

Length 148 m; draft 8 m.

Type: Ship (hazmat cat A). MMSI: 636092040.

Date/timePositionNaut miles runAvg speedWind from/ knotsBaromVisibWave heightAir tempDewpointWater temp
2017-Feb-20 20:32N 35°54' W 005°56'1516.0
2017-Feb-20 19:33N 35°57' W 005°38'1615.6
2017-Feb-20 18:34N 36°02' W 005°19'1615.6
2017-Feb-20 17:32N 36°06' W 004°60'21013.1
2017-Feb-20 01:28N 37°20' W 000°55'1213.4
2017-Feb-20 00:32N 37°28' W 000°43'1312.9
2017-Feb-19 23:33N 37°37' W 000°31'10710.4
2017-Feb-19 13:15N 39°22' W 000°11'710.2
2017-Feb-19 12:34N 39°26' W 000°19'1 0.7
2017-Feb-19 11:31N 39°27' W 000°19'0 0.0
2017-Feb-19 10:33N 39°27' W 000°19'0 0.0
2017-Feb-19 09:33N 39°27' W 000°19'0 0.0
2017-Feb-19 08:33N 39°27' W 000°19'0 0.0
2017-Feb-19 07:33N 39°27' W 000°19'0 0.0
2017-Feb-19 06:33N 39°27' W 000°19'0 0.0
2017-Feb-19 05:33N 39°27' W 000°19'0 0.0
2017-Feb-19 04:33N 39°27' W 000°19'0 0.0
2017-Feb-19 03:33N 39°27' W 000°19'0 0.0
2017-Feb-19 02:33N 39°27' W 000°19'0 0.0
2017-Feb-19 01:33N 39°27' W 000°19'0 0.0
2017-Feb-19 00:33N 39°27' W 000°19'0 0.0
2017-Feb-18 23:33N 39°27' W 000°19'0 0.0
2017-Feb-18 22:33N 39°27' W 000°19'0 0.0
2017-Feb-18 21:33N 39°27' W 000°19'0 0.0
2017-Feb-18 20:33N 39°27' W 000°19'0 0.0
2017-Feb-18 19:33N 39°27' W 000°19'0 0.0
2017-Feb-18 18:33N 39°27' W 000°19'0 0.0
2017-Feb-18 17:33N 39°27' W 000°19'0 0.0
2017-Feb-18 16:33N 39°27' W 000°19'0 0.0
2017-Feb-18 15:33N 39°27' W 000°19'0 0.0
2017-Feb-18 14:33N 39°27' W 000°19'0 0.0
2017-Feb-18 13:33N 39°27' W 000°19'0 0.0
2017-Feb-18 12:33N 39°27' W 000°19'0 0.0
2017-Feb-18 11:33N 39°27' W 000°19'0 0.0
2017-Feb-18 10:33N 39°27' W 000°19'0 0.0
2017-Feb-18 09:33N 39°27' W 000°19'0 0.0
2017-Feb-18 08:34N 39°27' W 000°19'4 3.8
2017-Feb-18 07:32N 39°26' W 000°14'68 3.4
2017-Feb-17 11:33N 40°12' E 000°51'1313.1
2017-Feb-17 10:33N 40°21' E 001°04'1312.7
2017-Feb-17 09:33N 40°29' E 001°17'1514.5
2017-Feb-17 08:33N 40°39' E 001°30'1616.0
2017-Feb-17 07:33N 40°50' E 001°46'1212.3
2017-Feb-17 06:33N 40°58' E 001°58'1212.1
2017-Feb-17 05:33N 41°05' E 002°11'1212.0
2017-Feb-17 04:33N 41°12' E 002°24'1212.2
2017-Feb-17 03:33N 41°19' E 002°38'15512.8
2017-Feb-16 15:31N 43°08' E 005°05'1313.8
2017-Feb-16 14:33N 43°19' E 005°15'3 0.3
2017-Feb-16 04:32N 43°21' E 005°19'8 8.0
2017-Feb-16 03:34N 43°16' E 005°11'  
2017-Feb-13 01:08N 41°29' E 003°09'813.2
2017-Feb-13 00:33N 41°23' E 003°02'1313.3
2017-Feb-12 23:33N 41°12' E 002°52'1413.7
2017-Feb-12 22:33N 41°01' E 002°41'1514.7
2017-Feb-12 21:33N 40°49' E 002°29'1514.9
2017-Feb-12 20:33N 40°37' E 002°17'1514.8
2017-Feb-12 19:33N 40°25' E 002°06'1515.3
2017-Feb-12 18:33N 40°13' E 001°54'1615.5
2017-Feb-12 17:33N 40°00' E 001°42'1515.3
2017-Feb-12 16:33N 39°48' E 001°30'1915.4
2017-Feb-12 15:19N 39°33' E 001°15'1215.7
2017-Feb-12 14:33N 39°23' E 001°06'12315.3
2017-Feb-12 06:33N 37°42' W 000°23'1515.3
2017-Feb-12 05:33N 37°30' W 000°35'1614.9
2017-Feb-12 04:28N 37°20' W 000°51'21114.2
2017-Feb-11 13:32N 36°03' W 004°57'1616.1
2017-Feb-11 12:33N 36°01' W 005°16'1615.8
2017-Feb-11 11:33N 35°56' W 005°35'1413.2
2017-Feb-11 10:29N 35°54' W 005°52'  

Dump ship's entire track history